sensor_id;sensor_type;location;lat;lon;timestamp;temperature;humidity
8953;DHT22;4511;50.890;8.054;2023-05-07T00:00:34;14.60;99.90
8953;DHT22;4511;50.890;8.054;2023-05-07T00:03:02;14.60;99.90
8953;DHT22;4511;50.890;8.054;2023-05-07T00:05:29;14.60;99.90
8953;DHT22;4511;50.890;8.054;2023-05-07T00:07:56;14.60;99.90
8953;DHT22;4511;50.890;8.054;2023-05-07T00:10:23;14.60;99.90
8953;DHT22;4511;50.890;8.054;2023-05-07T00:12:51;14.60;99.90
8953;DHT22;4511;50.890;8.054;2023-05-07T00:15:17;14.50;99.90
8953;DHT22;4511;50.890;8.054;2023-05-07T00:17:44;14.50;99.90
8953;DHT22;4511;50.890;8.054;2023-05-07T00:20:12;14.50;99.90
8953;DHT22;4511;50.890;8.054;2023-05-07T00:22:39;14.50;99.90
8953;DHT22;4511;50.890;8.054;2023-05-07T00:25:06;14.50;99.90
8953;DHT22;4511;50.890;8.054;2023-05-07T00:27:33;14.50;99.90
8953;DHT22;4511;50.890;8.054;2023-05-07T00:30:00;14.50;99.90
8953;DHT22;4511;50.890;8.054;2023-05-07T00:32:27;14.50;99.90
8953;DHT22;4511;50.890;8.054;2023-05-07T00:34:53;14.50;99.90
8953;DHT22;4511;50.890;8.054;2023-05-07T00:37:22;14.60;99.90
8953;DHT22;4511;50.890;8.054;2023-05-07T00:39:49;14.50;99.90
8953;DHT22;4511;50.890;8.054;2023-05-07T00:42:15;14.50;99.90
8953;DHT22;4511;50.890;8.054;2023-05-07T00:44:42;14.40;99.90
8953;DHT22;4511;50.890;8.054;2023-05-07T00:47:09;14.40;99.90
8953;DHT22;4511;50.890;8.054;2023-05-07T00:49:38;14.40;99.90
8953;DHT22;4511;50.890;8.054;2023-05-07T00:52:06;14.40;99.90
8953;DHT22;4511;50.890;8.054;2023-05-07T00:54:35;14.40;99.90
8953;DHT22;4511;50.890;8.054;2023-05-07T00:57:02;14.40;99.90
8953;DHT22;4511;50.890;8.054;2023-05-07T00:59:31;14.40;99.90
8953;DHT22;4511;50.890;8.054;2023-05-07T01:01:58;14.40;99.90
8953;DHT22;4511;50.890;8.054;2023-05-07T01:04:25;14.30;99.90
8953;DHT22;4511;50.890;8.054;2023-05-07T01:06:53;14.30;99.90
8953;DHT22;4511;50.890;8.054;2023-05-07T01:09:21;14.40;99.90
8953;DHT22;4511;50.890;8.054;2023-05-07T01:11:50;14.40;99.90
8953;DHT22;4511;50.890;8.054;2023-05-07T01:14:18;14.20;99.90
8953;DHT22;4511;50.890;8.054;2023-05-07T01:16:46;14.30;99.90
8953;DHT22;4511;50.890;8.054;2023-05-07T01:19:14;14.30;99.90
8953;DHT22;4511;50.890;8.054;2023-05-07T01:21:45;14.40;99.90
8953;DHT22;4511;50.890;8.054;2023-05-07T01:24:14;14.40;99.90
8953;DHT22;4511;50.890;8.054;2023-05-07T01:26:42;14.30;99.90
8953;DHT22;4511;50.890;8.054;2023-05-07T01:29:09;14.40;99.90
8953;DHT22;4511;50.890;8.054;2023-05-07T01:31:36;14.30;99.90
8953;DHT22;4511;50.890;8.054;2023-05-07T01:34:03;14.40;99.90
8953;DHT22;4511;50.890;8.054;2023-05-07T01:36:31;14.40;99.90
8953;DHT22;4511;50.890;8.054;2023-05-07T01:38:59;14.40;99.90
8953;DHT22;4511;50.890;8.054;2023-05-07T01:41:27;14.40;99.90
8953;DHT22;4511;50.890;8.054;2023-05-07T01:43:54;14.30;99.90
8953;DHT22;4511;50.890;8.054;2023-05-07T01:46:21;14.30;99.90
8953;DHT22;4511;50.890;8.054;2023-05-07T01:48:50;14.40;99.90
8953;DHT22;4511;50.890;8.054;2023-05-07T01:51:16;14.30;99.90
8953;DHT22;4511;50.890;8.054;2023-05-07T01:53:45;14.30;99.90
8953;DHT22;4511;50.890;8.054;2023-05-07T01:56:16;14.30;99.90
8953;DHT22;4511;50.890;8.054;2023-05-07T01:58:44;14.30;99.90
8953;DHT22;4511;50.890;8.054;2023-05-07T02:01:12;14.40;99.90
8953;DHT22;4511;50.890;8.054;2023-05-07T02:03:39;14.40;99.90
8953;DHT22;4511;50.890;8.054;2023-05-07T02:06:06;14.30;99.90
8953;DHT22;4511;50.890;8.054;2023-05-07T02:08:32;14.30;99.90
8953;DHT22;4511;50.890;8.054;2023-05-07T02:10:59;14.40;99.90
8953;DHT22;4511;50.890;8.054;2023-05-07T02:13:28;14.30;99.90
8953;DHT22;4511;50.890;8.054;2023-05-07T02:15:57;14.30;99.90
8953;DHT22;4511;50.890;8.054;2023-05-07T02:18:23;14.30;99.90
8953;DHT22;4511;50.890;8.054;2023-05-07T02:20:50;14.40;99.90
8953;DHT22;4511;50.890;8.054;2023-05-07T02:23:17;14.40;99.90
8953;DHT22;4511;50.890;8.054;2023-05-07T02:25:44;14.40;99.90
8953;DHT22;4511;50.890;8.054;2023-05-07T02:28:11;14.40;99.90
8953;DHT22;4511;50.890;8.054;2023-05-07T02:30:38;14.40;99.90
8953;DHT22;4511;50.890;8.054;2023-05-07T02:33:06;14.30;99.90
8953;DHT22;4511;50.890;8.054;2023-05-07T02:35:33;14.30;99.90
8953;DHT22;4511;50.890;8.054;2023-05-07T02:38:00;14.20;99.90
8953;DHT22;4511;50.890;8.054;2023-05-07T02:40:27;14.20;99.90
8953;DHT22;4511;50.890;8.054;2023-05-07T02:42:54;14.20;99.90
8953;DHT22;4511;50.890;8.054;2023-05-07T02:45:21;14.20;99.90
8953;DHT22;4511;50.890;8.054;2023-05-07T02:47:47;14.20;99.90
8953;DHT22;4511;50.890;8.054;2023-05-07T02:50:16;14.30;99.90
8953;DHT22;4511;50.890;8.054;2023-05-07T02:52:42;14.30;99.90
8953;DHT22;4511;50.890;8.054;2023-05-07T02:55:09;14.30;99.90
8953;DHT22;4511;50.890;8.054;2023-05-07T02:57:36;14.40;99.90
8953;DHT22;4511;50.890;8.054;2023-05-07T03:00:11;14.40;99.90
8953;DHT22;4511;50.890;8.054;2023-05-07T03:02:38;14.30;99.90
8953;DHT22;4511;50.890;8.054;2023-05-07T03:05:06;14.40;99.90
8953;DHT22;4511;50.890;8.054;2023-05-07T03:07:34;14.40;99.90
8953;DHT22;4511;50.890;8.054;2023-05-07T03:10:01;14.30;99.90
8953;DHT22;4511;50.890;8.054;2023-05-07T03:12:28;14.30;99.90
8953;DHT22;4511;50.890;8.054;2023-05-07T03:14:55;14.30;99.90
8953;DHT22;4511;50.890;8.054;2023-05-07T03:17:22;14.30;99.90
8953;DHT22;4511;50.890;8.054;2023-05-07T03:19:48;14.40;99.90
8953;DHT22;4511;50.890;8.054;2023-05-07T03:22:15;14.30;99.90
8953;DHT22;4511;50.890;8.054;2023-05-07T03:24:43;14.10;99.90
8953;DHT22;4511;50.890;8.054;2023-05-07T03:27:10;13.90;99.90
8953;DHT22;4511;50.890;8.054;2023-05-07T03:29:37;13.80;99.90
8953;DHT22;4511;50.890;8.054;2023-05-07T03:32:04;13.90;99.90
8953;DHT22;4511;50.890;8.054;2023-05-07T03:34:31;13.90;99.90
8953;DHT22;4511;50.890;8.054;2023-05-07T03:36:57;14.00;99.90
8953;DHT22;4511;50.890;8.054;2023-05-07T03:39:24;14.10;99.90
8953;DHT22;4511;50.890;8.054;2023-05-07T03:41:52;14.10;99.90
8953;DHT22;4511;50.890;8.054;2023-05-07T03:44:19;14.10;99.90
8953;DHT22;4511;50.890;8.054;2023-05-07T03:46:46;14.10;99.90
8953;DHT22;4511;50.890;8.054;2023-05-07T03:49:13;14.10;99.90
8953;DHT22;4511;50.890;8.054;2023-05-07T03:51:39;14.10;99.90
8953;DHT22;4511;50.890;8.054;2023-05-07T03:54:07;14.10;99.90
8953;DHT22;4511;50.890;8.054;2023-05-07T03:56:33;14.20;99.90
8953;DHT22;4511;50.890;8.054;2023-05-07T03:59:01;14.20;99.90
8953;DHT22;4511;50.890;8.054;2023-05-07T04:01:28;14.20;99.90
8953;DHT22;4511;50.890;8.054;2023-05-07T04:03:55;14.20;99.90
8953;DHT22;4511;50.890;8.054;2023-05-07T04:06:22;14.20;99.90
8953;DHT22;4511;50.890;8.054;2023-05-07T04:08:49;14.20;99.90
8953;DHT22;4511;50.890;8.054;2023-05-07T04:11:16;14.20;99.90
8953;DHT22;4511;50.890;8.054;2023-05-07T04:13:49;14.20;99.90
8953;DHT22;4511;50.890;8.054;2023-05-07T04:16:17;14.10;99.90
8953;DHT22;4511;50.890;8.054;2023-05-07T04:18:44;14.20;99.90
8953;DHT22;4511;50.890;8.054;2023-05-07T04:21:14;14.20;99.90
8953;DHT22;4511;50.890;8.054;2023-05-07T04:23:41;14.20;99.90
8953;DHT22;4511;50.890;8.054;2023-05-07T04:26:08;14.20;99.90
8953;DHT22;4511;50.890;8.054;2023-05-07T04:28:35;14.20;99.90
8953;DHT22;4511;50.890;8.054;2023-05-07T04:31:02;14.10;99.90
8953;DHT22;4511;50.890;8.054;2023-05-07T04:33:30;14.10;99.90
8953;DHT22;4511;50.890;8.054;2023-05-07T04:35:57;14.10;99.90
8953;DHT22;4511;50.890;8.054;2023-05-07T04:38:31;14.00;99.90
8953;DHT22;4511;50.890;8.054;2023-05-07T04:41:02;14.10;99.90
8953;DHT22;4511;50.890;8.054;2023-05-07T04:43:30;14.10;99.90
8953;DHT22;4511;50.890;8.054;2023-05-07T04:45:57;14.20;99.90
8953;DHT22;4511;50.890;8.054;2023-05-07T04:48:24;14.20;99.90
8953;DHT22;4511;50.890;8.054;2023-05-07T04:50:53;14.30;99.90
8953;DHT22;4511;50.890;8.054;2023-05-07T04:53:20;14.30;99.90
8953;DHT22;4511;50.890;8.054;2023-05-07T04:55:46;14.30;99.90
8953;DHT22;4511;50.890;8.054;2023-05-07T04:58:13;14.30;99.90
8953;DHT22;4511;50.890;8.054;2023-05-07T05:00:40;14.40;99.90
8953;DHT22;4511;50.890;8.054;2023-05-07T05:03:07;14.40;99.90
8953;DHT22;4511;50.890;8.054;2023-05-07T05:05:34;14.40;99.90
8953;DHT22;4511;50.890;8.054;2023-05-07T05:08:02;14.40;99.90
8953;DHT22;4511;50.890;8.054;2023-05-07T05:10:29;14.40;99.90
8953;DHT22;4511;50.890;8.054;2023-05-07T05:12:56;14.30;99.90
8953;DHT22;4511;50.890;8.054;2023-05-07T05:15:23;14.40;99.90
8953;DHT22;4511;50.890;8.054;2023-05-07T05:17:50;14.30;99.90
8953;DHT22;4511;50.890;8.054;2023-05-07T05:20:17;14.40;99.90
8953;DHT22;4511;50.890;8.054;2023-05-07T05:22:43;14.50;99.90
8953;DHT22;4511;50.890;8.054;2023-05-07T05:25:12;14.60;99.90
8953;DHT22;4511;50.890;8.054;2023-05-07T05:27:39;14.60;99.90
8953;DHT22;4511;50.890;8.054;2023-05-07T05:30:06;14.50;99.90
8953;DHT22;4511;50.890;8.054;2023-05-07T05:32:33;14.60;99.90
8953;DHT22;4511;50.890;8.054;2023-05-07T05:35:00;14.60;99.90
8953;DHT22;4511;50.890;8.054;2023-05-07T05:37:27;14.60;99.90
8953;DHT22;4511;50.890;8.054;2023-05-07T05:39:55;14.70;99.90
8953;DHT22;4511;50.890;8.054;2023-05-07T05:42:23;14.70;99.90
8953;DHT22;4511;50.890;8.054;2023-05-07T05:44:50;14.70;99.90
8953;DHT22;4511;50.890;8.054;2023-05-07T05:47:17;14.70;99.90
8953;DHT22;4511;50.890;8.054;2023-05-07T05:49:43;14.70;99.90
8953;DHT22;4511;50.890;8.054;2023-05-07T05:52:12;14.80;99.90
8953;DHT22;4511;50.890;8.054;2023-05-07T05:54:39;14.90;99.90
8953;DHT22;4511;50.890;8.054;2023-05-07T05:57:06;14.90;99.90
8953;DHT22;4511;50.890;8.054;2023-05-07T05:59:34;14.80;99.90
8953;DHT22;4511;50.890;8.054;2023-05-07T06:02:00;14.90;99.90
8953;DHT22;4511;50.890;8.054;2023-05-07T06:04:27;14.80;99.90
8953;DHT22;4511;50.890;8.054;2023-05-07T06:06:54;14.80;99.90
8953;DHT22;4511;50.890;8.054;2023-05-07T06:09:22;14.80;99.90
8953;DHT22;4511;50.890;8.054;2023-05-07T06:11:48;14.90;99.90
8953;DHT22;4511;50.890;8.054;2023-05-07T06:14:15;15.00;99.90
8953;DHT22;4511;50.890;8.054;2023-05-07T06:16:43;15.10;99.90
8953;DHT22;4511;50.890;8.054;2023-05-07T06:19:10;15.10;99.90
8953;DHT22;4511;50.890;8.054;2023-05-07T06:21:38;15.10;99.90
8953;DHT22;4511;50.890;8.054;2023-05-07T06:24:07;15.20;99.90
8953;DHT22;4511;50.890;8.054;2023-05-07T06:26:33;15.20;99.90
8953;DHT22;4511;50.890;8.054;2023-05-07T06:29:00;15.30;99.90
8953;DHT22;4511;50.890;8.054;2023-05-07T06:31:30;15.40;99.90
8953;DHT22;4511;50.890;8.054;2023-05-07T06:33:59;15.50;99.90
8953;DHT22;4511;50.890;8.054;2023-05-07T06:36:27;15.60;99.90
8953;DHT22;4511;50.890;8.054;2023-05-07T06:38:54;15.70;99.90
8953;DHT22;4511;50.890;8.054;2023-05-07T06:41:21;15.70;99.90
8953;DHT22;4511;50.890;8.054;2023-05-07T06:43:48;15.70;99.90
8953;DHT22;4511;50.890;8.054;2023-05-07T06:46:16;15.70;99.90
8953;DHT22;4511;50.890;8.054;2023-05-07T06:48:42;15.80;99.90
8953;DHT22;4511;50.890;8.054;2023-05-07T06:51:10;15.80;99.90
8953;DHT22;4511;50.890;8.054;2023-05-07T06:53:37;15.90;99.90
8953;DHT22;4511;50.890;8.054;2023-05-07T06:56:04;16.00;99.90
8953;DHT22;4511;50.890;8.054;2023-05-07T06:58:31;16.00;99.90
8953;DHT22;4511;50.890;8.054;2023-05-07T07:00:58;16.00;99.90
8953;DHT22;4511;50.890;8.054;2023-05-07T07:03:25;16.10;99.90
8953;DHT22;4511;50.890;8.054;2023-05-07T07:05:52;16.20;99.90
8953;DHT22;4511;50.890;8.054;2023-05-07T07:08:21;16.30;99.90
8953;DHT22;4511;50.890;8.054;2023-05-07T07:10:48;16.30;99.90
8953;DHT22;4511;50.890;8.054;2023-05-07T07:13:15;16.50;99.90
8953;DHT22;4511;50.890;8.054;2023-05-07T07:15:56;16.50;99.90
8953;DHT22;4511;50.890;8.054;2023-05-07T07:18:29;16.60;99.90
8953;DHT22;4511;50.890;8.054;2023-05-07T07:20:56;16.70;99.90
8953;DHT22;4511;50.890;8.054;2023-05-07T07:23:24;16.70;99.90
8953;DHT22;4511;50.890;8.054;2023-05-07T07:25:51;16.80;99.90
8953;DHT22;4511;50.890;8.054;2023-05-07T07:28:20;16.80;99.90
8953;DHT22;4511;50.890;8.054;2023-05-07T07:30:47;16.90;99.90
8953;DHT22;4511;50.890;8.054;2023-05-07T07:33:13;17.00;99.90
8953;DHT22;4511;50.890;8.054;2023-05-07T07:35:40;17.10;99.90
8953;DHT22;4511;50.890;8.054;2023-05-07T07:38:07;17.10;99.90
8953;DHT22;4511;50.890;8.054;2023-05-07T07:40:36;17.10;99.90
8953;DHT22;4511;50.890;8.054;2023-05-07T07:43:02;17.30;99.90
8953;DHT22;4511;50.890;8.054;2023-05-07T07:45:30;17.30;99.90
8953;DHT22;4511;50.890;8.054;2023-05-07T07:47:57;17.40;99.90
8953;DHT22;4511;50.890;8.054;2023-05-07T07:50:24;17.50;99.90
8953;DHT22;4511;50.890;8.054;2023-05-07T07:52:51;17.60;99.90
8953;DHT22;4511;50.890;8.054;2023-05-07T07:55:19;17.60;99.90
8953;DHT22;4511;50.890;8.054;2023-05-07T07:57:49;17.70;99.90
8953;DHT22;4511;50.890;8.054;2023-05-07T08:00:16;17.60;99.90
8953;DHT22;4511;50.890;8.054;2023-05-07T08:02:43;17.60;99.90
8953;DHT22;4511;50.890;8.054;2023-05-07T08:05:10;17.70;99.90
8953;DHT22;4511;50.890;8.054;2023-05-07T08:07:37;17.70;99.90
8953;DHT22;4511;50.890;8.054;2023-05-07T08:10:04;17.80;99.90
8953;DHT22;4511;50.890;8.054;2023-05-07T08:12:30;17.80;99.90
8953;DHT22;4511;50.890;8.054;2023-05-07T08:14:59;17.70;99.90
8953;DHT22;4511;50.890;8.054;2023-05-07T08:17:25;17.80;99.90
8953;DHT22;4511;50.890;8.054;2023-05-07T08:19:52;17.80;99.90
8953;DHT22;4511;50.890;8.054;2023-05-07T08:22:19;17.80;99.90
8953;DHT22;4511;50.890;8.054;2023-05-07T08:24:46;17.90;99.90
8953;DHT22;4511;50.890;8.054;2023-05-07T08:27:12;18.00;99.90
8953;DHT22;4511;50.890;8.054;2023-05-07T08:29:39;18.10;99.90
8953;DHT22;4511;50.890;8.054;2023-05-07T08:32:07;18.10;99.90
8953;DHT22;4511;50.890;8.054;2023-05-07T08:34:34;18.20;99.90
8953;DHT22;4511;50.890;8.054;2023-05-07T08:37:01;18.40;99.90
8953;DHT22;4511;50.890;8.054;2023-05-07T08:39:28;18.40;99.90
8953;DHT22;4511;50.890;8.054;2023-05-07T08:41:55;18.50;99.90
8953;DHT22;4511;50.890;8.054;2023-05-07T08:44:26;18.60;99.90
8953;DHT22;4511;50.890;8.054;2023-05-07T08:46:53;18.70;99.90
8953;DHT22;4511;50.890;8.054;2023-05-07T08:49:23;18.80;99.90
8953;DHT22;4511;50.890;8.054;2023-05-07T08:51:50;18.90;99.90
8953;DHT22;4511;50.890;8.054;2023-05-07T08:54:17;18.90;99.90
8953;DHT22;4511;50.890;8.054;2023-05-07T08:56:45;18.90;99.90
8953;DHT22;4511;50.890;8.054;2023-05-07T08:59:12;19.00;99.90
8953;DHT22;4511;50.890;8.054;2023-05-07T09:01:39;19.10;99.90
8953;DHT22;4511;50.890;8.054;2023-05-07T09:04:05;19.00;99.90
8953;DHT22;4511;50.890;8.054;2023-05-07T09:06:34;19.00;99.90
8953;DHT22;4511;50.890;8.054;2023-05-07T09:09:03;19.00;99.90
8953;DHT22;4511;50.890;8.054;2023-05-07T09:11:30;19.00;99.90
8953;DHT22;4511;50.890;8.054;2023-05-07T09:13:57;19.00;99.90
8953;DHT22;4511;50.890;8.054;2023-05-07T09:16:27;19.00;99.90
8953;DHT22;4511;50.890;8.054;2023-05-07T09:18:57;19.10;99.90
8953;DHT22;4511;50.890;8.054;2023-05-07T09:21:24;19.20;99.90
8953;DHT22;4511;50.890;8.054;2023-05-07T09:23:53;19.30;99.90
8953;DHT22;4511;50.890;8.054;2023-05-07T09:26:21;19.40;99.90
8953;DHT22;4511;50.890;8.054;2023-05-07T09:28:48;19.50;99.90
8953;DHT22;4511;50.890;8.054;2023-05-07T09:31:14;19.70;99.90
8953;DHT22;4511;50.890;8.054;2023-05-07T09:33:41;19.90;99.90
8953;DHT22;4511;50.890;8.054;2023-05-07T09:36:09;20.20;99.90
8953;DHT22;4511;50.890;8.054;2023-05-07T09:38:37;20.30;99.90
8953;DHT22;4511;50.890;8.054;2023-05-07T09:41:07;20.40;99.90
8953;DHT22;4511;50.890;8.054;2023-05-07T09:43:34;20.50;99.90
8953;DHT22;4511;50.890;8.054;2023-05-07T09:46:03;20.80;99.90
8953;DHT22;4511;50.890;8.054;2023-05-07T09:48:34;20.90;99.90
8953;DHT22;4511;50.890;8.054;2023-05-07T09:51:02;21.20;99.90
8953;DHT22;4511;50.890;8.054;2023-05-07T09:53:30;21.40;99.90
8953;DHT22;4511;50.890;8.054;2023-05-07T09:55:58;21.40;99.90
8953;DHT22;4511;50.890;8.054;2023-05-07T09:58:27;21.60;99.90
8953;DHT22;4511;50.890;8.054;2023-05-07T10:00:54;21.50;99.90
8953;DHT22;4511;50.890;8.054;2023-05-07T10:03:22;21.40;99.90
8953;DHT22;4511;50.890;8.054;2023-05-07T10:05:50;21.50;99.90
8953;DHT22;4511;50.890;8.054;2023-05-07T10:08:18;21.50;99.90
8953;DHT22;4511;50.890;8.054;2023-05-07T10:10:45;21.60;99.90
8953;DHT22;4511;50.890;8.054;2023-05-07T10:13:13;21.60;99.90
8953;DHT22;4511;50.890;8.054;2023-05-07T10:15:41;21.90;99.90
8953;DHT22;4511;50.890;8.054;2023-05-07T10:18:08;22.10;99.90
8953;DHT22;4511;50.890;8.054;2023-05-07T10:20:36;22.30;99.90
8953;DHT22;4511;50.890;8.054;2023-05-07T10:23:04;22.20;99.90
8953;DHT22;4511;50.890;8.054;2023-05-07T10:25:32;22.10;99.90
8953;DHT22;4511;50.890;8.054;2023-05-07T10:28:02;22.10;99.90
8953;DHT22;4511;50.890;8.054;2023-05-07T10:30:49;22.20;99.90
8953;DHT22;4511;50.890;8.054;2023-05-07T10:33:25;22.30;99.90
8953;DHT22;4511;50.890;8.054;2023-05-07T10:35:57;22.10;99.90
8953;DHT22;4511;50.890;8.054;2023-05-07T10:38:25;22.20;99.90
8953;DHT22;4511;50.890;8.054;2023-05-07T10:40:52;22.20;99.90
8953;DHT22;4511;50.890;8.054;2023-05-07T10:43:19;22.20;99.90
8953;DHT22;4511;50.890;8.054;2023-05-07T10:46:09;22.30;99.90
8953;DHT22;4511;50.890;8.054;2023-05-07T10:49:06;22.40;99.90
8953;DHT22;4511;50.890;8.054;2023-05-07T10:51:34;22.40;99.90
8953;DHT22;4511;50.890;8.054;2023-05-07T10:54:20;22.40;99.90
8953;DHT22;4511;50.890;8.054;2023-05-07T10:56:47;22.40;99.90
8953;DHT22;4511;50.890;8.054;2023-05-07T10:59:33;22.50;99.90
8953;DHT22;4511;50.890;8.054;2023-05-07T11:02:02;22.60;99.90
8953;DHT22;4511;50.890;8.054;2023-05-07T11:04:32;22.60;99.90
8953;DHT22;4511;50.890;8.054;2023-05-07T11:07:25;22.70;99.90
8953;DHT22;4511;50.890;8.054;2023-05-07T11:09:56;23.00;99.90
8953;DHT22;4511;50.890;8.054;2023-05-07T11:12:51;23.10;99.90
8953;DHT22;4511;50.890;8.054;2023-05-07T11:15:48;23.20;99.90
8953;DHT22;4511;50.890;8.054;2023-05-07T11:18:17;23.40;99.90
8953;DHT22;4511;50.890;8.054;2023-05-07T11:20:49;23.40;99.90
8953;DHT22;4511;50.890;8.054;2023-05-07T11:23:57;23.40;99.90
8953;DHT22;4511;50.890;8.054;2023-05-07T11:26:28;23.40;99.90
8953;DHT22;4511;50.890;8.054;2023-05-07T11:28:56;23.40;99.90
8953;DHT22;4511;50.890;8.054;2023-05-07T11:31:25;23.60;99.90
8953;DHT22;4511;50.890;8.054;2023-05-07T11:33:54;23.60;99.90
8953;DHT22;4511;50.890;8.054;2023-05-07T11:36:23;23.90;99.90
8953;DHT22;4511;50.890;8.054;2023-05-07T11:38:50;24.00;99.90
8953;DHT22;4511;50.890;8.054;2023-05-07T11:41:17;23.90;99.90
8953;DHT22;4511;50.890;8.054;2023-05-07T11:43:56;24.10;99.90
8953;DHT22;4511;50.890;8.054;2023-05-07T11:46:24;24.30;99.90
8953;DHT22;4511;50.890;8.054;2023-05-07T11:48:51;24.30;99.90
8953;DHT22;4511;50.890;8.054;2023-05-07T11:51:23;24.10;99.90
8953;DHT22;4511;50.890;8.054;2023-05-07T11:53:51;23.90;99.90
8953;DHT22;4511;50.890;8.054;2023-05-07T11:56:18;23.60;99.90
8953;DHT22;4511;50.890;8.054;2023-05-07T11:58:46;23.40;99.90
8953;DHT22;4511;50.890;8.054;2023-05-07T12:01:14;23.00;99.90
8953;DHT22;4511;50.890;8.054;2023-05-07T12:03:42;22.90;99.90
8953;DHT22;4511;50.890;8.054;2023-05-07T12:06:11;22.80;99.90
8953;DHT22;4511;50.890;8.054;2023-05-07T12:08:41;22.60;99.90
8953;DHT22;4511;50.890;8.054;2023-05-07T12:11:09;22.50;99.90
8953;DHT22;4511;50.890;8.054;2023-05-07T12:13:37;22.30;99.90
8953;DHT22;4511;50.890;8.054;2023-05-07T12:16:05;22.30;99.90
8953;DHT22;4511;50.890;8.054;2023-05-07T12:18:33;22.20;99.90
8953;DHT22;4511;50.890;8.054;2023-05-07T12:21:04;21.80;99.90
8953;DHT22;4511;50.890;8.054;2023-05-07T12:23:31;21.60;99.90
8953;DHT22;4511;50.890;8.054;2023-05-07T12:26:00;21.60;99.90
8953;DHT22;4511;50.890;8.054;2023-05-07T12:28:27;21.60;99.90
8953;DHT22;4511;50.890;8.054;2023-05-07T12:30:54;21.60;99.90
8953;DHT22;4511;50.890;8.054;2023-05-07T12:33:25;21.50;99.90
8953;DHT22;4511;50.890;8.054;2023-05-07T12:35:54;21.50;99.90
8953;DHT22;4511;50.890;8.054;2023-05-07T12:38:21;21.50;99.90
8953;DHT22;4511;50.890;8.054;2023-05-07T12:40:49;21.30;99.90
8953;DHT22;4511;50.890;8.054;2023-05-07T12:43:19;21.30;99.90
8953;DHT22;4511;50.890;8.054;2023-05-07T12:45:48;21.20;99.90
8953;DHT22;4511;50.890;8.054;2023-05-07T12:48:16;21.20;99.90
8953;DHT22;4511;50.890;8.054;2023-05-07T12:50:42;21.00;99.90
8953;DHT22;4511;50.890;8.054;2023-05-07T12:53:10;21.00;99.90
8953;DHT22;4511;50.890;8.054;2023-05-07T12:55:41;20.90;99.90
8953;DHT22;4511;50.890;8.054;2023-05-07T12:58:14;20.80;99.90
8953;DHT22;4511;50.890;8.054;2023-05-07T13:00:43;20.80;99.90
8953;DHT22;4511;50.890;8.054;2023-05-07T13:03:10;20.70;99.90
8953;DHT22;4511;50.890;8.054;2023-05-07T13:05:37;20.60;99.90
8953;DHT22;4511;50.890;8.054;2023-05-07T13:08:06;20.60;99.90
8953;DHT22;4511;50.890;8.054;2023-05-07T13:10:35;20.50;99.90
8953;DHT22;4511;50.890;8.054;2023-05-07T13:13:01;20.50;99.90
8953;DHT22;4511;50.890;8.054;2023-05-07T13:15:29;20.50;99.90
8953;DHT22;4511;50.890;8.054;2023-05-07T13:17:57;20.40;99.90
8953;DHT22;4511;50.890;8.054;2023-05-07T13:20:24;20.40;99.90
8953;DHT22;4511;50.890;8.054;2023-05-07T13:22:50;20.30;99.90
8953;DHT22;4511;50.890;8.054;2023-05-07T13:25:17;20.40;99.90
8953;DHT22;4511;50.890;8.054;2023-05-07T13:27:44;20.30;99.90
8953;DHT22;4511;50.890;8.054;2023-05-07T13:30:11;20.30;99.90
8953;DHT22;4511;50.890;8.054;2023-05-07T13:32:38;20.30;99.90
8953;DHT22;4511;50.890;8.054;2023-05-07T13:35:07;20.30;99.90
8953;DHT22;4511;50.890;8.054;2023-05-07T13:37:34;20.30;99.90
8953;DHT22;4511;50.890;8.054;2023-05-07T13:40:01;20.30;99.90
8953;DHT22;4511;50.890;8.054;2023-05-07T13:42:28;20.30;99.90
8953;DHT22;4511;50.890;8.054;2023-05-07T13:44:55;20.20;99.90
8953;DHT22;4511;50.890;8.054;2023-05-07T13:47:22;20.20;99.90
8953;DHT22;4511;50.890;8.054;2023-05-07T13:49:49;20.20;99.90
8953;DHT22;4511;50.890;8.054;2023-05-07T13:52:17;20.10;99.90
8953;DHT22;4511;50.890;8.054;2023-05-07T13:54:44;20.10;99.90
8953;DHT22;4511;50.890;8.054;2023-05-07T13:57:11;20.10;99.90
8953;DHT22;4511;50.890;8.054;2023-05-07T13:59:37;20.00;99.90
8953;DHT22;4511;50.890;8.054;2023-05-07T14:02:04;19.90;99.90
8953;DHT22;4511;50.890;8.054;2023-05-07T14:04:31;19.80;99.90
8953;DHT22;4511;50.890;8.054;2023-05-07T14:06:57;19.70;99.90
8953;DHT22;4511;50.890;8.054;2023-05-07T14:09:25;19.70;99.90
8953;DHT22;4511;50.890;8.054;2023-05-07T14:11:52;19.70;99.90
8953;DHT22;4511;50.890;8.054;2023-05-07T14:14:19;19.60;99.90
8953;DHT22;4511;50.890;8.054;2023-05-07T14:16:46;19.60;99.90
8953;DHT22;4511;50.890;8.054;2023-05-07T14:19:12;19.50;99.90
8953;DHT22;4511;50.890;8.054;2023-05-07T14:21:40;19.50;99.90
8953;DHT22;4511;50.890;8.054;2023-05-07T14:24:07;19.40;99.90
8953;DHT22;4511;50.890;8.054;2023-05-07T14:26:36;19.40;99.90
8953;DHT22;4511;50.890;8.054;2023-05-07T14:29:03;19.40;99.90
8953;DHT22;4511;50.890;8.054;2023-05-07T14:31:29;19.30;99.90
8953;DHT22;4511;50.890;8.054;2023-05-07T14:33:56;19.20;99.90
8953;DHT22;4511;50.890;8.054;2023-05-07T14:36:24;19.20;99.90
8953;DHT22;4511;50.890;8.054;2023-05-07T14:38:51;19.10;99.90
8953;DHT22;4511;50.890;8.054;2023-05-07T14:41:19;18.90;99.90
8953;DHT22;4511;50.890;8.054;2023-05-07T14:43:47;18.90;99.90
8953;DHT22;4511;50.890;8.054;2023-05-07T14:46:16;18.80;99.90
8953;DHT22;4511;50.890;8.054;2023-05-07T14:48:43;18.80;99.90
8953;DHT22;4511;50.890;8.054;2023-05-07T14:51:11;18.80;99.90
8953;DHT22;4511;50.890;8.054;2023-05-07T14:53:37;18.80;99.90
8953;DHT22;4511;50.890;8.054;2023-05-07T14:56:05;18.80;99.90
8953;DHT22;4511;50.890;8.054;2023-05-07T14:58:31;18.80;99.90
8953;DHT22;4511;50.890;8.054;2023-05-07T15:01:00;18.80;99.90
8953;DHT22;4511;50.890;8.054;2023-05-07T15:03:27;18.70;99.90
8953;DHT22;4511;50.890;8.054;2023-05-07T15:05:54;18.70;99.90
8953;DHT22;4511;50.890;8.054;2023-05-07T15:08:21;18.60;99.90
8953;DHT22;4511;50.890;8.054;2023-05-07T15:10:48;18.60;99.90
8953;DHT22;4511;50.890;8.054;2023-05-07T15:13:14;18.60;99.90
8953;DHT22;4511;50.890;8.054;2023-05-07T15:15:41;18.60;99.90
8953;DHT22;4511;50.890;8.054;2023-05-07T15:18:10;18.60;99.90
8953;DHT22;4511;50.890;8.054;2023-05-07T15:20:37;18.60;99.90
8953;DHT22;4511;50.890;8.054;2023-05-07T15:23:05;18.50;99.90
8953;DHT22;4511;50.890;8.054;2023-05-07T15:25:35;18.50;99.90
8953;DHT22;4511;50.890;8.054;2023-05-07T15:28:02;18.40;99.90
8953;DHT22;4511;50.890;8.054;2023-05-07T15:30:30;18.30;99.90
8953;DHT22;4511;50.890;8.054;2023-05-07T15:32:56;18.20;99.90
8953;DHT22;4511;50.890;8.054;2023-05-07T15:35:25;18.20;99.90
8953;DHT22;4511;50.890;8.054;2023-05-07T15:37:52;18.10;99.90
8953;DHT22;4511;50.890;8.054;2023-05-07T15:40:19;18.10;99.90
8953;DHT22;4511;50.890;8.054;2023-05-07T15:42:46;18.00;99.90
8953;DHT22;4511;50.890;8.054;2023-05-07T15:45:13;18.00;99.90
8953;DHT22;4511;50.890;8.054;2023-05-07T15:47:40;17.90;99.90
8953;DHT22;4511;50.890;8.054;2023-05-07T15:50:07;17.90;99.90
8953;DHT22;4511;50.890;8.054;2023-05-07T15:52:36;17.80;99.90
8953;DHT22;4511;50.890;8.054;2023-05-07T15:55:04;17.80;99.90
8953;DHT22;4511;50.890;8.054;2023-05-07T15:57:31;17.80;99.90
8953;DHT22;4511;50.890;8.054;2023-05-07T15:59:58;17.70;99.90
8953;DHT22;4511;50.890;8.054;2023-05-07T16:02:25;17.60;99.90
8953;DHT22;4511;50.890;8.054;2023-05-07T16:04:52;17.70;99.90
8953;DHT22;4511;50.890;8.054;2023-05-07T16:07:18;17.60;99.90